Terminal Aerodrome Forecast
Issued by NWS

Home | Current Version | Previous Version | Text Only | Print | Product List | Glossary On
Versions: 1 2 3 4 5 6 7 8 9 10 11 12 13 14 15 16 17 18 19
000
FTUS41 KBTV 091139
TAFMSS
TAF
KMSS 091139Z 0912/1012 28012G20KT P6SM OVC050
     FM092300 27009KT P6SM BKN050
     FM100100 27009KT P6SM SCT050
     FM100400 27005KT P6SM BKN150=

USA.gov is the U.S. government's official web portal to all federal, state and local government web resources and services.